Time;durP1;ratioP1;P1;durP2;ratioP2;P2;SDS_P1;SDS_P2;PMS_P1;PMS_P2;Temp;Humidity;BMP_temperature;BMP_pressure;BME280_temperature;BME280_humidity;BME280_pressure;Samples;Min_cycle;Max_cycle;Signal;HPM_P1;HPM_P2
2023/05/07 00:01:48;;;;;;;16.40;12.80;;;;;;;10.35;90.83;96719.90;109317;1253;25488;-84
2023/05/07 00:04:20;;;;;;;15.30;11.70;;;;;;;10.34;90.80;96720.11;109277;1266;22600;-84
2023/05/07 00:06:51;;;;;;;16.80;13.50;;;;;;;10.32;91.17;96715.90;109290;1265;22534;-85
2023/05/07 00:09:22;;;;;;;13.60;12.20;;;;;;;10.29;91.32;96712.15;109292;1266;22774;-84
2023/05/07 00:11:54;;;;;;;13.60;11.80;;;;;;;10.26;91.45;96718.92;109201;1267;22463;-84
2023/05/07 00:14:25;;;;;;;15.10;11.60;;;;;;;10.23;91.40;96719.91;109211;1269;22515;-84
2023/05/07 00:16:58;;;;;;;15.40;12.90;;;;;;;10.21;91.48;96719.59;109171;1266;22515;-85
2023/05/07 00:19:29;;;;;;;15.80;14.10;;;;;;;10.19;91.66;96718.48;109162;1272;23824;-85
2023/05/07 00:22:00;;;;;;;13.50;11.10;;;;;;;10.16;91.44;96718.70;109303;1266;22528;-84
2023/05/07 00:24:31;;;;;;;14.30;12.70;;;;;;;10.14;91.47;96718.86;109272;1250;22519;-85
2023/05/07 00:27:03;;;;;;;15.90;12.40;;;;;;;10.12;91.39;96716.53;109261;1266;22556;-84
2023/05/07 00:29:34;;;;;;;12.50;11.20;;;;;;;10.11;91.37;96718.28;109268;1266;22518;-84
2023/05/07 00:32:07;;;;;;;14.80;12.70;;;;;;;10.11;91.34;96713.78;109135;1272;22766;-84
2023/05/07 00:34:39;;;;;;;15.40;12.70;;;;;;;10.11;91.33;96717.44;109169;1272;22549;-84
2023/05/07 00:37:11;;;;;;;13.80;11.70;;;;;;;10.10;91.38;96720.56;109145;1272;22479;-85
2023/05/07 00:39:43;;;;;;;14.60;12.70;;;;;;;10.10;91.44;96723.27;109154;1272;22533;-85
2023/05/07 00:42:16;;;;;;;14.50;12.40;;;;;;;10.10;91.26;96719.03;109295;1266;22505;-84
2023/05/07 00:44:47;;;;;;;14.10;12.50;;;;;;;10.11;91.24;96722.47;109288;1250;22521;-84
2023/05/07 00:47:18;;;;;;;15.50;13.70;;;;;;;10.10;91.16;96726.88;109289;1266;22534;-84
2023/05/07 00:49:50;;;;;;;16.90;14.00;;;;;;;10.09;91.28;96728.11;109295;1266;22577;-84
2023/05/07 00:52:23;;;;;;;16.60;13.20;;;;;;;10.08;91.36;96727.99;109327;1272;22531;-84
2023/05/07 00:54:56;;;;;;;16.90;13.70;;;;;;;10.06;91.55;96729.96;109316;1260;23333;-83
2023/05/07 00:57:27;;;;;;;17.40;14.40;;;;;;;10.07;91.71;96728.53;109130;1251;22524;-84
2023/05/07 00:59:58;;;;;;;15.80;13.70;;;;;;;10.08;91.75;96728.21;109250;1266;23958;-84
2023/05/07 01:02:29;;;;;;;17.30;14.70;;;;;;;10.08;91.82;96726.24;109233;1269;22508;-84
2023/05/07 01:05:01;;;;;;;16.80;14.20;;;;;;;10.08;91.96;96729.90;109312;1250;22438;-84
2023/05/07 01:07:33;;;;;;;16.50;13.50;;;;;;;10.08;92.02;96727.09;109281;1269;22542;-84
2023/05/07 01:10:06;;;;;;;17.20;14.40;;;;;;;10.08;91.94;96732.83;109245;1272;22469;-84
2023/05/07 01:12:38;;;;;;;15.20;11.20;;;;;;;10.10;91.91;96736.26;109144;1250;22518;-84
2023/05/07 01:15:11;;;;;;;13.80;11.20;;;;;;;10.09;91.79;96735.94;109107;1266;25407;-84
2023/05/07 01:17:43;;;;;;;13.70;11.80;;;;;;;10.08;91.74;96733.14;109208;1250;22551;-85
2023/05/07 01:20:15;;;;;;;14.80;12.90;;;;;;;10.07;91.57;96736.48;109230;1262;22530;-84
2023/05/07 01:22:46;;;;;;;14.50;12.70;;;;;;;10.07;91.40;96738.28;109266;1272;22593;-84
2023/05/07 01:25:18;;;;;;;14.20;12.30;;;;;;;10.07;91.19;96735.58;109270;1272;22452;-84
2023/05/07 01:27:48;;;;;;;14.10;12.70;;;;;;;10.06;91.05;96734.84;109338;1272;22511;-84
2023/05/07 01:30:21;;;;;;;12.80;10.90;;;;;;;10.07;90.96;96732.30;109305;1271;22515;-83
2023/05/07 01:32:57;;;;;;;11.70;10.30;;;;;;;10.08;90.76;96729.17;109273;1272;22579;-84
2023/05/07 01:35:31;;;;;;;10.90;9.70;;;;;;;10.09;90.43;96734.73;109275;1264;22560;-84
2023/05/07 01:38:05;;;;;;;12.70;9.90;;;;;;;10.05;90.25;96731.20;109336;1272;25416;-84
2023/05/07 01:40:37;;;;;;;8.60;7.30;;;;;;;10.03;90.15;96736.40;109179;1266;24123;-84
2023/05/07 01:43:08;;;;;;;10.80;8.50;;;;;;;10.01;90.15;96732.92;109159;1266;22476;-84
2023/05/07 01:45:41;;;;;;;9.80;8.10;;;;;;;9.99;90.02;96736.62;109208;1272;22515;-84
2023/05/07 01:48:13;;;;;;;11.00;8.20;;;;;;;9.96;89.91;96731.74;109214;1266;22546;-84
2023/05/07 01:50:45;;;;;;;13.40;10.30;;;;;;;9.93;90.12;96732.67;109163;1266;22465;-84
2023/05/07 01:53:16;;;;;;;13.40;11.10;;;;;;;9.90;90.16;96731.10;109132;1272;23161;-84
2023/05/07 01:55:47;;;;;;;14.30;11.50;;;;;;;9.88;90.28;96730.41;109176;1266;24234;-84
2023/05/07 01:58:18;;;;;;;13.40;11.50;;;;;;;9.87;90.26;96736.63;109176;1272;23289;-83
2023/05/07 02:00:49;;;;;;;12.50;11.20;;;;;;;9.85;90.46;96734.70;109185;1272;22519;-84
2023/05/07 02:03:20;;;;;;;13.10;11.00;;;;;;;9.85;90.57;96735.39;109179;1272;22462;-84
2023/05/07 02:05:51;;;;;;;11.90;10.20;;;;;;;9.85;90.61;96734.65;109158;1272;22515;-84
2023/05/07 02:08:22;;;;;;;11.90;9.80;;;;;;;9.85;90.69;96733.42;109167;1272;22682;-84
2023/05/07 02:10:53;;;;;;;12.30;10.60;;;;;;;9.84;90.67;96730.41;109148;1266;25469;-83
2023/05/07 02:13:25;;;;;;;11.50;8.70;;;;;;;9.82;90.63;96727.56;109180;1266;23357;-84
2023/05/07 02:15:56;;;;;;;11.10;9.90;;;;;;;9.81;90.66;96728.10;109171;1272;22709;-84
2023/05/07 02:18:27;;;;;;;13.10;10.80;;;;;;;9.80;90.59;96726.62;109154;1272;25854;-84
2023/05/07 02:20:58;;;;;;;11.30;7.30;;;;;;;9.80;90.60;96723.82;109140;1272;22533;-83
2023/05/07 02:23:29;;;;;;;9.80;6.50;;;;;;;9.78;90.49;96722.66;109202;1266;22492;-84
2023/05/07 02:26:00;;;;;;;9.20;6.60;;;;;;;9.75;90.61;96716.54;109199;1272;22487;-84
2023/05/07 02:28:31;;;;;;;10.60;8.70;;;;;;;9.74;90.54;96721.36;109196;1270;25407;-83
2023/05/07 02:31:03;;;;;;;8.60;7.10;;;;;;;9.72;90.49;96724.86;109204;1266;22511;-84
2023/05/07 02:33:34;;;;;;;8.70;6.70;;;;;;;9.70;90.44;96731.77;109186;1272;22477;-83
2023/05/07 02:36:12;;;;;;;9.00;7.90;;;;;;;9.68;90.44;96731.73;109147;1249;22588;-83
2023/05/07 02:38:44;;;;;;;7.70;6.60;;;;;;;9.67;90.15;96730.89;109162;1266;22561;-84
2023/05/07 02:41:15;;;;;;;9.50;7.50;;;;;;;9.66;89.98;96730.68;109133;1272;22558;-84
2023/05/07 02:43:45;;;;;;;9.40;7.90;;;;;;;9.66;89.90;96735.61;109146;1272;22592;-84
2023/05/07 02:46:16;;;;;;;8.90;7.70;;;;;;;9.66;89.71;96733.13;109204;1272;22555;-83
2023/05/07 02:48:47;;;;;;;8.70;7.30;;;;;;;9.64;89.55;96736.57;109217;1272;22470;-84
2023/05/07 02:51:20;;;;;;;10.30;8.30;;;;;;;9.62;89.53;96738.17;109255;1269;25396;-83
2023/05/07 02:53:51;;;;;;;9.70;8.70;;;;;;;9.57;89.57;96734.69;109292;1271;22530;-84
2023/05/07 02:56:22;;;;;;;9.50;8.50;;;;;;;9.55;89.74;96736.37;109295;1264;22649;-83
2023/05/07 02:58:53;;;;;;;8.90;7.80;;;;;;;9.56;89.84;96739.55;109345;1272;24209;-84
2023/05/07 03:01:24;;;;;;;10.30;8.90;;;;;;;9.55;89.98;96737.70;109175;1272;22519;-84
2023/05/07 03:03:57;;;;;;;11.10;10.00;;;;;;;9.53;90.08;96742.99;109157;1272;22591;-84
2023/05/07 03:06:27;;;;;;;10.90;9.10;;;;;;;9.53;90.01;96742.95;109202;1265;22501;-84
2023/05/07 03:08:58;;;;;;;12.70;9.90;;;;;;;9.52;90.17;96742.20;109180;1266;22562;-84
2023/05/07 03:11:29;;;;;;;12.50;10.60;;;;;;;9.51;90.06;96745.23;109168;1272;22518;-84
2023/05/07 03:14:01;;;;;;;12.50;11.20;;;;;;;9.50;90.36;96745.39;109136;1272;22568;-83
2023/05/07 03:16:32;;;;;;;14.00;12.10;;;;;;;9.50;90.46;96747.13;109170;1272;22514;-84
2023/05/07 03:19:03;;;;;;;14.80;13.20;;;;;;;9.49;90.57;96752.70;109152;1272;22520;-83
2023/05/07 03:21:34;;;;;;;15.00;13.40;;;;;;;9.50;90.78;96757.72;109153;1265;22932;-84
2023/05/07 03:24:05;;;;;;;16.50;14.20;;;;;;;9.50;91.03;96755.60;109117;1272;22519;-84
2023/05/07 03:26:36;;;;;;;16.80;15.00;;;;;;;9.49;91.07;96762.06;109236;1262;22929;-83
2023/05/07 03:29:07;;;;;;;17.70;16.00;;;;;;;9.48;91.13;96767.15;109228;1266;24186;-84
2023/05/07 03:31:38;;;;;;;17.10;15.40;;;;;;;9.50;91.30;96763.70;109145;1266;22736;-83
2023/05/07 03:34:09;;;;;;;15.60;13.90;;;;;;;9.52;91.33;96765.96;109156;1272;24180;-84
2023/05/07 03:36:40;;;;;;;18.20;16.50;;;;;;;9.53;91.22;96770.52;109168;1266;22537;-83
2023/05/07 03:39:11;;;;;;;17.20;15.40;;;;;;;9.54;91.38;96773.27;109173;1269;22511;-84
2023/05/07 03:41:42;;;;;;;16.70;15.00;;;;;;;9.55;91.37;96775.65;109132;1266;22543;-84
2023/05/07 03:44:13;;;;;;;17.60;15.90;;;;;;;9.55;91.34;96775.70;109128;1267;22538;-84
2023/05/07 03:46:43;;;;;;;18.20;16.30;;;;;;;9.57;91.35;96778.98;109135;1272;22650;-84
2023/05/07 03:49:14;;;;;;;16.50;14.80;;;;;;;9.59;91.22;96778.31;109120;1250;22605;-84
2023/05/07 03:51:45;;;;;;;17.30;15.50;;;;;;;9.61;91.34;96780.27;109174;1272;22574;-84
2023/05/07 03:54:16;;;;;;;18.70;16.80;;;;;;;9.61;91.25;96783.43;109147;1272;22907;-84
2023/05/07 03:56:47;;;;;;;18.70;16.70;;;;;;;9.62;91.27;96790.05;109132;1272;24215;-84
2023/05/07 03:59:18;;;;;;;20.00;17.00;;;;;;;9.65;91.24;96797.14;109182;1266;22523;-84
2023/05/07 04:01:49;;;;;;;20.70;18.70;;;;;;;9.66;91.15;96793.73;109166;1268;22514;-84
2023/05/07 04:04:21;;;;;;;20.70;16.70;;;;;;;9.67;91.13;96794.38;109035;1266;164759;-84
2023/05/07 04:06:52;;;;;;;22.20;19.80;;;;;;;9.62;91.32;96795.02;109152;1266;22455;-84
2023/05/07 04:09:23;;;;;;;21.30;19.00;;;;;;;9.56;91.40;96797.83;109123;1266;22560;-84
2023/05/07 04:11:54;;;;;;;24.30;21.80;;;;;;;9.54;91.35;96801.00;109141;1267;22692;-84
2023/05/07 04:14:25;;;;;;;24.60;20.90;;;;;;;9.52;91.52;96807.89;109150;1266;22581;-84
2023/05/07 04:16:57;;;;;;;24.00;19.60;;;;;;;9.51;91.75;96813.52;109157;1268;22561;-83
2023/05/07 04:19:28;;;;;;;23.40;16.70;;;;;;;9.48;92.06;96809.17;109121;1266;24341;-84
2023/05/07 04:21:59;;;;;;;20.30;16.70;;;;;;;9.40;92.05;96817.79;109146;1269;22489;-84
2023/05/07 04:24:32;;;;;;;19.60;13.70;;;;;;;9.36;92.04;96817.54;109146;1270;22635;-84
2023/05/07 04:27:02;;;;;;;15.60;11.50;;;;;;;9.32;92.21;96813.84;109160;1272;22531;-84
2023/05/07 04:29:33;;;;;;;12.20;10.20;;;;;;;9.30;92.16;96822.67;109157;1266;22559;-84
2023/05/07 04:32:05;;;;;;;12.50;9.90;;;;;;;9.27;92.25;96823.92;109188;1272;25428;-84
2023/05/07 04:34:36;;;;;;;11.60;9.40;;;;;;;9.26;92.44;96825.52;109162;1272;23737;-84
2023/05/07 04:37:07;;;;;;;12.40;9.90;;;;;;;9.20;92.28;96826.89;109102;1266;25942;-84
2023/05/07 04:39:38;;;;;;;13.90;10.70;;;;;;;9.21;92.40;96833.41;109150;1272;22552;-84
2023/05/07 04:42:09;;;;;;;13.30;10.00;;;;;;;9.22;92.68;96839.11;109131;1272;22667;-84
2023/05/07 04:44:40;;;;;;;13.80;10.20;;;;;;;9.19;92.62;96843.40;109184;1269;22703;-84
2023/05/07 04:47:12;;;;;;;13.10;10.30;;;;;;;9.15;92.57;96849.22;109163;1272;24828;-84
2023/05/07 04:49:43;;;;;;;10.80;8.90;;;;;;;9.16;92.79;96855.73;109145;1266;22610;-84
2023/05/07 04:52:15;;;;;;;11.80;9.10;;;;;;;9.17;92.91;96855.79;109169;1266;22559;-84
2023/05/07 04:54:46;;;;;;;14.20;11.00;;;;;;;9.21;93.08;96859.43;109129;1272;22566;-84
2023/05/07 04:57:17;;;;;;;14.90;11.50;;;;;;;9.21;93.09;96860.91;109127;1272;22564;-84
2023/05/07 04:59:48;;;;;;;18.40;12.80;;;;;;;9.20;93.00;96860.59;109164;1272;22546;-84
2023/05/07 05:02:19;;;;;;;19.30;12.90;;;;;;;9.20;92.94;96864.93;109202;1262;24321;-84
2023/05/07 05:04:50;;;;;;;24.00;13.30;;;;;;;9.17;93.00;96865.04;109123;1272;22530;-85
2023/05/07 05:07:21;;;;;;;19.30;13.70;;;;;;;9.16;93.13;96864.14;109193;1266;22602;-85
2023/05/07 05:09:52;;;;;;;14.60;12.40;;;;;;;9.19;93.45;96868.90;109119;1266;24208;-84
2023/05/07 05:12:23;;;;;;;16.10;13.30;;;;;;;9.20;93.41;96869.00;109135;1273;22661;-85
2023/05/07 05:14:55;;;;;;;17.40;13.50;;;;;;;9.22;93.36;96878.85;109134;1269;22491;-84
2023/05/07 05:17:26;;;;;;;12.80;10.30;;;;;;;9.25;93.49;96875.83;109188;1266;22507;-85
2023/05/07 05:19:57;;;;;;;13.40;11.20;;;;;;;9.24;93.15;96879.90;109141;1266;22523;-84
2023/05/07 05:22:29;;;;;;;14.40;11.20;;;;;;;9.23;93.27;96880.64;109177;1272;23693;-85
2023/05/07 05:25:01;;;;;;;12.70;10.10;;;;;;;9.24;93.40;96883.23;109139;1266;22512;-85
2023/05/07 05:27:32;;;;;;;11.30;9.60;;;;;;;9.26;93.34;96881.38;109165;1249;22548;-85
2023/05/07 05:30:03;;;;;;;9.90;8.40;;;;;;;9.29;93.46;96884.67;109090;1273;22461;-85
2023/05/07 05:32:34;;;;;;;10.10;7.90;;;;;;;9.34;93.52;96884.36;109133;1272;22725;-85
2023/05/07 05:35:06;;;;;;;9.50;6.90;;;;;;;9.37;93.34;96890.45;109097;1266;25234;-85
2023/05/07 05:37:38;;;;;;;8.90;6.70;;;;;;;9.36;93.17;96888.98;109202;1272;24190;-84
2023/05/07 05:40:13;;;;;;;9.40;7.10;;;;;;;9.37;93.35;96890.82;109178;1272;22518;-85
2023/05/07 05:42:44;;;;;;;10.10;7.00;;;;;;;9.41;93.43;96894.36;109616;1272;22522;-85
2023/05/07 05:45:16;;;;;;;7.60;6.30;;;;;;;9.42;93.33;96894.63;109144;1266;23971;-85
2023/05/07 05:47:47;;;;;;;8.30;6.20;;;;;;;9.43;93.27;96900.69;109212;1272;22468;-85
2023/05/07 05:50:18;;;;;;;22.80;17.30;;;;;;;9.46;93.29;96900.95;109230;1272;22514;-85
2023/05/07 05:52:50;;;;;;;13.70;11.90;;;;;;;9.48;93.08;96908.63;109276;1266;22474;-84
2023/05/07 05:55:21;;;;;;;7.80;6.80;;;;;;;9.39;92.81;96908.66;109319;1272;24898;-84
2023/05/07 05:57:53;;;;;;;8.70;6.90;;;;;;;9.20;92.96;96908.36;109325;1265;22458;-84
2023/05/07 06:00:25;;;;;;;8.40;7.00;;;;;;;9.07;92.95;96913.09;109250;1265;25936;-85
2023/05/07 06:02:56;;;;;;;8.20;6.60;;;;;;;8.98;93.59;96916.61;109159;1269;22477;-85
2023/05/07 06:05:27;;;;;;;36.30;23.10;;;;;;;8.83;93.42;96915.65;109129;1272;22664;-84
2023/05/07 06:07:59;;;;;;;23.10;15.30;;;;;;;8.81;93.73;96916.29;109169;1269;24180;-85
2023/05/07 06:10:31;;;;;;;24.00;17.50;;;;;;;8.85;93.96;96918.04;109226;1266;22470;-84
2023/05/07 06:13:03;;;;;;;11.30;9.00;;;;;;;8.86;93.86;96917.94;109262;1268;25282;-85
2023/05/07 06:15:34;;;;;;;8.60;6.80;;;;;;;8.89;93.86;96921.04;109218;1271;24202;-84
2023/05/07 06:18:06;;;;;;;6.70;5.00;;;;;;;8.93;93.96;96923.47;109259;1251;22510;-84
2023/05/07 06:20:37;;;;;;;18.80;11.50;;;;;;;8.97;93.83;96925.70;109294;1272;22737;-84
2023/05/07 06:23:08;;;;;;;7.70;5.50;;;;;;;8.99;93.72;96928.02;109257;1266;22681;-85
2023/05/07 06:25:39;;;;;;;6.20;5.30;;;;;;;8.97;93.65;96930.30;109278;1271;22511;-85
2023/05/07 06:28:11;;;;;;;4.30;3.80;;;;;;;8.96;93.50;96927.28;109257;1271;22518;-85
2023/05/07 06:30:42;;;;;;;3.30;3.00;;;;;;;8.92;93.35;96933.04;109262;1272;23971;-85
2023/05/07 06:33:13;;;;;;;13.00;10.20;;;;;;;8.91;93.56;96938.39;109263;1266;25272;-85
2023/05/07 06:35:45;;;;;;;20.10;16.10;;;;;;;8.92;93.44;96938.75;109304;1272;25901;-85
2023/05/07 06:38:17;;;;;;;10.00;8.40;;;;;;;8.92;93.44;96942.03;109239;1272;22632;-84
2023/05/07 06:40:51;;;;;;;10.70;8.30;;;;;;;8.90;93.17;96939.54;109189;1266;22520;-85
2023/05/07 06:43:22;;;;;;;8.30;6.10;;;;;;;8.89;93.38;96941.60;109206;1271;22545;-85
2023/05/07 06:45:53;;;;;;;3.50;3.10;;;;;;;8.86;93.07;96939.94;109315;1272;22483;-85
2023/05/07 06:48:24;;;;;;;2.60;2.40;;;;;;;8.82;93.11;96946.85;109247;1272;22557;-85
2023/05/07 06:51:04;;;;;;;2.30;2.10;;;;;;;8.78;93.11;96950.80;109191;1272;24145;-83
2023/05/07 06:53:41;;;;;;;2.50;2.30;;;;;;;8.74;93.05;96953.23;109219;1265;22596;-82
2023/05/07 06:56:15;;;;;;;2.40;2.20;;;;;;;8.74;93.24;96956.70;109152;1266;22452;-83
2023/05/07 06:58:46;;;;;;;2.10;1.90;;;;;;;8.72;93.17;96959.13;109160;1272;22535;-83
2023/05/07 07:01:17;;;;;;;1.50;1.40;;;;;;;8.72;93.35;96962.46;109259;1266;22736;-82
2023/05/07 07:03:48;;;;;;;4.70;1.40;;;;;;;8.72;93.12;96963.55;109259;1269;23624;-83
2023/05/07 07:06:20;;;;;;;1.10;1.00;;;;;;;8.69;92.91;96970.16;109253;1272;23805;-82
2023/05/07 07:08:51;;;;;;;1.00;0.80;;;;;;;8.69;92.82;96972.54;109298;1266;22475;-82
2023/05/07 07:11:21;;;;;;;1.10;0.90;;;;;;;8.67;92.64;96971.42;109282;1272;25408;-82
2023/05/07 07:13:54;;;;;;;1.20;1.10;;;;;;;8.62;92.49;96977.52;109317;1272;22507;-82
2023/05/07 07:16:25;;;;;;;1.40;1.30;;;;;;;8.56;92.40;96980.39;109283;1272;22563;-82
2023/05/07 07:18:56;;;;;;;1.30;0.80;;;;;;;8.51;92.34;96986.55;109251;1266;24193;-82
2023/05/07 07:21:27;;;;;;;1.70;1.60;;;;;;;8.38;92.55;96987.84;109156;1266;23549;-82
2023/05/07 07:23:58;;;;;;;1.50;1.40;;;;;;;8.21;92.84;96990.77;109186;1266;22473;-82
2023/05/07 07:26:29;;;;;;;1.80;1.50;;;;;;;8.05;93.53;96990.96;109176;1272;22619;-82
2023/05/07 07:29:01;;;;;;;2.50;1.60;;;;;;;7.89;94.12;96991.94;109167;1272;22650;-82
2023/05/07 07:31:32;;;;;;;2.40;1.40;;;;;;;7.84;94.15;96998.11;109174;1266;22500;-82
2023/05/07 07:34:03;;;;;;;1.50;1.40;;;;;;;7.77;94.96;97006.13;109158;1272;23321;-82
2023/05/07 07:39:44;;;;;;;3.00;1.90;;;;;;;7.64;95.87;97014.14;109213;1268;22469;-81
2023/05/07 07:42:18;;;;;;;3.30;2.50;;;;;;;7.63;95.85;97015.14;109209;1270;22507;-81
2023/05/07 07:44:51;;;;;;;4.10;2.60;;;;;;;7.65;95.73;97016.47;109193;1272;22493;-82
2023/05/07 07:47:23;;;;;;;2.80;1.90;;;;;;;7.76;96.00;97017.84;109168;1269;22760;-82
2023/05/07 07:50:02;;;;;;;1.90;1.70;;;;;;;7.86;95.85;97014.18;109152;1272;23685;-82
2023/05/07 07:52:33;;;;;;;1.30;1.20;;;;;;;7.93;95.41;97015.20;109227;1266;22746;-83
2023/05/07 07:55:11;;;;;;;2.50;1.70;;;;;;;7.97;95.29;97018.61;109158;1272;22517;-82
2023/05/07 07:57:47;;;;;;;2.50;1.60;;;;;;;8.01;95.14;97025.45;109180;1266;23780;-82
2023/05/07 08:00:20;;;;;;;3.10;2.20;;;;;;;8.05;95.19;97029.77;109220;1272;23798;-82
2023/05/07 08:02:57;;;;;;;1.90;1.80;;;;;;;8.06;94.74;97031.69;109331;1272;22660;-82
2023/05/07 08:05:28;;;;;;;1.60;1.50;;;;;;;8.03;94.58;97036.48;109300;1256;22624;-82
2023/05/07 08:08:02;;;;;;;1.80;1.20;;;;;;;8.02;94.63;97037.58;109279;1269;23807;-82
2023/05/07 08:10:38;;;;;;;1.60;1.10;;;;;;;8.02;94.59;97042.46;109255;1272;22547;-82
2023/05/07 08:13:10;;;;;;;1.20;1.10;;;;;;;8.02;94.47;97044.27;109202;1266;22522;-82
2023/05/07 08:15:41;;;;;;;1.20;1.10;;;;;;;8.05;94.33;97049.95;109166;1272;22500;-82
2023/05/07 08:18:13;;;;;;;2.60;1.50;;;;;;;8.06;94.25;97051.27;109180;1269;22515;-81
2023/05/07 08:20:44;;;;;;;1.50;1.20;;;;;;;8.05;94.20;97051.75;109255;1272;25896;-82
2023/05/07 08:23:20;;;;;;;1.70;1.40;;;;;;;8.07;94.35;97055.88;109334;1267;22515;-82
2023/05/07 08:25:57;;;;;;;1.90;1.40;;;;;;;8.08;94.12;97057.47;109318;1266;22508;-81
2023/05/07 08:28:28;;;;;;;1.60;1.30;;;;;;;8.07;94.06;97056.56;109299;1266;22532;-82
2023/05/07 08:31:02;;;;;;;1.60;1.50;;;;;;;8.00;93.71;97058.66;109385;1265;22539;-82
2023/05/07 08:33:38;;;;;;;2.50;1.90;;;;;;;7.89;93.51;97063.00;109332;1268;25219;-82
2023/05/07 08:36:12;;;;;;;2.20;1.80;;;;;;;7.79;93.58;97066.55;109268;1266;23211;-82
2023/05/07 08:38:45;;;;;;;1.70;1.60;;;;;;;7.84;94.07;97072.39;109383;1266;22620;-82
2023/05/07 08:41:20;;;;;;;2.10;1.90;;;;;;;7.91;94.18;97074.31;109189;1272;25446;-82
2023/05/07 08:43:52;;;;;;;2.20;1.70;;;;;;;7.99;94.16;97078.81;109167;1272;22523;-82
2023/05/07 08:46:26;;;;;;;2.30;2.10;;;;;;;8.04;94.30;97082.89;109193;1266;22592;-81
2023/05/07 08:48:58;;;;;;;2.80;1.80;;;;;;;8.11;94.22;97084.95;109146;1270;22483;-82
2023/05/07 08:51:29;;;;;;;2.50;2.00;;;;;;;8.19;94.21;97084.40;109377;1271;53585;-82
2023/05/07 08:54:04;;;;;;;2.10;1.80;;;;;;;8.22;93.90;97087.33;109319;1272;22527;-82
2023/05/07 08:56:36;;;;;;;2.70;2.20;;;;;;;8.19;93.52;97089.79;109268;1265;25939;-82
2023/05/07 08:59:09;;;;;;;2.50;2.30;;;;;;;8.15;93.37;97090.90;109361;1266;22511;-82
2023/05/07 09:01:40;;;;;;;2.60;1.90;;;;;;;8.17;93.44;97089.92;109349;1266;22515;-82
2023/05/07 09:04:13;;;;;;;2.30;1.80;;;;;;;8.22;93.48;97092.92;109358;1271;22755;-83
2023/05/07 09:06:44;;;;;;;2.00;1.70;;;;;;;8.26;93.36;97095.13;109305;1266;22504;-83
2023/05/07 09:09:18;;;;;;;1.90;1.60;;;;;;;8.30;93.31;97092.11;109295;1268;22725;-82
2023/05/07 09:12:00;;;;;;;2.20;1.80;;;;;;;8.40;93.56;97098.92;109373;1269;22483;-82
2023/05/07 09:14:32;;;;;;;1.70;1.60;;;;;;;8.47;93.18;97105.17;109332;1271;22852;-82
2023/05/07 09:17:03;;;;;;;3.60;1.70;;;;;;;8.49;93.10;97109.89;109332;1272;24173;-82
2023/05/07 09:19:36;;;;;;;1.50;1.20;;;;;;;8.46;92.82;97114.14;109368;1272;23745;-82
2023/05/07 09:22:08;;;;;;;2.20;1.30;;;;;;;8.40;92.37;97116.77;109404;1272;22611;-82
2023/05/07 09:24:40;;;;;;;1.10;0.90;;;;;;;8.33;92.20;97120.98;109347;1268;22520;-82
2023/05/07 09:27:13;;;;;;;3.70;2.30;;;;;;;8.21;91.97;97128.05;109329;1272;22549;-82
2023/05/07 09:29:46;;;;;;;2.30;1.90;;;;;;;8.17;92.22;97130.88;109264;1272;22520;-82
2023/05/07 09:32:18;;;;;;;4.30;2.60;;;;;;;8.16;92.15;97135.45;109108;1273;22545;-83
2023/05/07 09:34:50;;;;;;;6.40;3.70;;;;;;;8.20;92.33;97133.80;109141;1273;22647;-82
2023/05/07 09:37:22;;;;;;;8.40;4.50;;;;;;;8.23;92.33;97139.95;109090;1266;25393;-82
2023/05/07 09:39:56;;;;;;;4.90;3.20;;;;;;;8.28;92.42;97141.47;109228;1269;22678;-82
2023/05/07 09:42:32;;;;;;;3.20;2.90;;;;;;;8.34;92.54;97144.57;109345;1269;22549;-82
2023/05/07 09:45:06;;;;;;;2.30;2.10;;;;;;;8.37;92.27;97142.91;109473;1264;22580;-82
2023/05/07 09:47:45;;;;;;;3.60;2.70;;;;;;;8.29;91.88;97144.86;109568;1269;22598;-82
2023/05/07 09:50:20;;;;;;;3.10;2.40;;;;;;;8.24;91.89;97148.58;109519;1272;22440;-82
2023/05/07 09:52:52;;;;;;;2.60;2.40;;;;;;;8.18;91.69;97146.66;109202;1266;23811;-82
2023/05/07 09:55:26;;;;;;;3.20;2.50;;;;;;;8.11;91.73;97149.96;109412;1271;23431;-83
2023/05/07 09:58:02;;;;;;;2.70;2.40;;;;;;;8.09;91.93;97153.97;109337;1269;22552;-82
2023/05/07 10:00:35;;;;;;;2.40;1.90;;;;;;;8.11;92.25;97157.30;109146;1272;25432;-82
2023/05/07 10:03:10;;;;;;;3.00;2.70;;;;;;;8.17;92.28;97157.74;109219;1272;22460;-82
2023/05/07 10:05:44;;;;;;;2.70;2.50;;;;;;;8.19;92.00;97161.42;109163;1272;22698;-81
2023/05/07 10:08:16;;;;;;;3.50;2.30;;;;;;;8.17;91.79;97157.13;109125;1270;22676;-82
2023/05/07 10:10:50;;;;;;;3.20;2.20;;;;;;;8.18;92.01;97154.34;109147;1266;24262;-82
2023/05/07 10:13:22;;;;;;;2.10;1.90;;;;;;;8.27;92.16;97157.53;109136;1272;25281;-82
2023/05/07 10:15:53;;;;;;;2.50;1.90;;;;;;;8.43;92.29;97158.17;109148;1272;22552;-81
2023/05/07 10:18:29;;;;;;;2.70;1.90;;;;;;;8.53;92.24;97160.27;109166;1272;22582;-82
2023/05/07 10:21:08;;;;;;;1.80;1.60;;;;;;;8.60;91.93;97159.30;109209;1272;22600;-82
2023/05/07 10:23:39;;;;;;;2.10;1.80;;;;;;;8.59;91.63;97159.48;109265;1272;22747;-82
2023/05/07 10:26:11;;;;;;;2.10;1.80;;;;;;;8.57;91.60;97168.17;109210;1265;22508;-82
2023/05/07 10:28:45;;;;;;;2.30;1.80;;;;;;;8.60;91.56;97168.96;109204;1272;23911;-82
2023/05/07 10:31:45;;;;;;;2.00;1.70;;;;;;;8.63;91.32;97173.48;109200;1269;22543;-82
2023/05/07 10:34:22;;;;;;;1.60;1.50;;;;;;;8.59;91.01;97178.52;109122;1272;24627;-82
2023/05/07 10:36:55;;;;;;;2.30;1.90;;;;;;;8.53;90.88;97180.77;109149;1269;22522;-82
2023/05/07 10:39:26;;;;;;;2.40;2.00;;;;;;;8.51;90.87;97182.72;109138;1272;23259;-82
2023/05/07 10:41:58;;;;;;;2.10;1.90;;;;;;;8.53;91.00;97185.16;109250;1272;22552;-82
2023/05/07 10:44:30;;;;;;;2.40;1.80;;;;;;;8.55;90.90;97185.98;109260;1269;22456;-82
2023/05/07 10:47:13;;;;;;;1.80;1.60;;;;;;;8.56;90.89;97187.52;109280;1272;22456;-82
2023/05/07 10:50:19;;;;;;;2.20;1.80;;;;;;;8.56;90.88;97191.05;109222;1272;23807;-82
2023/05/07 10:53:30;;;;;;;2.30;1.80;;;;;;;8.53;90.70;97190.92;109222;1266;22511;-82
2023/05/07 10:56:29;;;;;;;1.70;1.60;;;;;;;8.50;90.35;97191.91;109233;1272;22455;-82
2023/05/07 10:59:35;;;;;;;2.40;1.80;;;;;;;8.51;90.33;97191.77;109246;1272;22522;-82
2023/05/07 11:02:09;;;;;;;2.20;1.70;;;;;;;8.51;90.48;97194.61;109229;1272;22625;-82
2023/05/07 11:04:42;;;;;;;3.00;2.30;;;;;;;8.50;90.17;97194.08;109283;1267;22506;-82
2023/05/07 11:07:38;;;;;;;3.10;2.30;;;;;;;8.47;90.08;97201.19;109213;1250;22524;-82
2023/05/07 11:10:11;;;;;;;2.70;2.50;;;;;;;8.40;89.96;97204.34;109184;1269;22559;-82
2023/05/07 11:12:56;;;;;;;3.80;2.90;;;;;;;8.34;90.14;97202.27;109161;1265;22466;-82
2023/05/07 11:15:41;;;;;;;4.30;3.20;;;;;;;8.27;89.96;97203.80;109141;1272;22518;-82
2023/05/07 11:18:17;;;;;;;4.30;3.40;;;;;;;8.20;89.80;97201.46;109193;1272;22607;-81
2023/05/07 11:20:57;;;;;;;4.80;3.60;;;;;;;8.16;90.03;97203.36;109508;1272;22608;-82
2023/05/07 11:23:59;;;;;;;4.90;3.60;;;;;;;8.15;90.31;97203.20;109160;1269;22515;-82
2023/05/07 11:26:42;;;;;;;6.00;3.90;;;;;;;8.16;90.40;97207.86;108991;1272;22633;-82
2023/05/07 11:29:16;;;;;;;5.60;3.80;;;;;;;8.14;90.26;97207.88;109180;1272;25321;-82
2023/05/07 11:31:51;;;;;;;5.00;4.10;;;;;;;8.02;89.86;97210.02;109136;1272;22618;-82
2023/05/07 11:34:27;;;;;;;7.00;3.80;;;;;;;7.94;90.23;97213.41;109115;1270;22544;-82
2023/05/07 11:36:59;;;;;;;6.60;4.30;;;;;;;7.88;90.28;97216.09;109145;1270;23584;-81
2023/05/07 11:39:32;;;;;;;4.60;4.10;;;;;;;7.86;90.42;97219.91;109160;1272;22518;-82
2023/05/07 11:42:04;;;;;;;8.00;4.50;;;;;;;7.87;90.44;97222.45;109271;1272;24209;-82
2023/05/07 11:44:48;;;;;;;6.70;5.10;;;;;;;7.83;90.49;97232.33;109210;1272;22468;-82
2023/05/07 11:47:22;;;;;;;5.30;4.60;;;;;;;7.73;90.25;97236.95;109211;1269;22452;-82
2023/05/07 11:49:56;;;;;;;6.80;5.20;;;;;;;7.66;90.31;97241.27;109196;1272;24410;-82
2023/05/07 11:52:28;;;;;;;8.10;5.50;;;;;;;7.63;90.55;97241.27;109214;1262;24204;-82
2023/05/07 11:55:03;;;;;;;5.30;4.80;;;;;;;7.61;90.65;97246.11;109114;1273;22513;-82